sensor_id;sensor_type;location;lat;lon;timestamp;pressure;altitude;pressure_sealevel;temperature;humidity
19624;BME280;9959;49.798;9.928;2022-11-20T00:01:09;62442.22;;;-147.66;100.00
19624;BME280;9959;49.798;9.928;2022-11-20T00:03:37;62442.22;;;-147.66;100.00
19624;BME280;9959;49.798;9.928;2022-11-20T00:06:06;62442.22;;;-147.66;100.00
19624;BME280;9959;49.798;9.928;2022-11-20T00:08:36;62442.22;;;-147.66;100.00
19624;BME280;9959;49.798;9.928;2022-11-20T00:11:05;62442.22;;;-147.66;100.00
19624;BME280;9959;49.798;9.928;2022-11-20T00:13:41;62442.22;;;-147.66;100.00
19624;BME280;9959;49.798;9.928;2022-11-20T00:16:11;62442.22;;;-147.66;100.00
19624;BME280;9959;49.798;9.928;2022-11-20T00:18:39;62442.22;;;-147.66;100.00
19624;BME280;9959;49.798;9.928;2022-11-20T00:21:14;62442.22;;;-147.66;100.00
19624;BME280;9959;49.798;9.928;2022-11-20T00:23:44;62442.22;;;-147.66;100.00
19624;BME280;9959;49.798;9.928;2022-11-20T00:26:14;62442.22;;;-147.66;100.00
19624;BME280;9959;49.798;9.928;2022-11-20T00:28:43;62442.22;;;-147.66;100.00
19624;BME280;9959;49.798;9.928;2022-11-20T00:31:13;62442.22;;;-147.66;100.00
19624;BME280;9959;49.798;9.928;2022-11-20T00:33:42;62442.22;;;-147.66;100.00
19624;BME280;9959;49.798;9.928;2022-11-20T00:36:12;62442.22;;;-147.66;100.00
19624;BME280;9959;49.798;9.928;2022-11-20T00:38:40;62442.22;;;-147.66;100.00
19624;BME280;9959;49.798;9.928;2022-11-20T00:41:11;62442.22;;;-147.66;100.00
19624;BME280;9959;49.798;9.928;2022-11-20T00:43:40;62442.22;;;-147.66;100.00
19624;BME280;9959;49.798;9.928;2022-11-20T00:46:09;62442.22;;;-147.66;100.00
19624;BME280;9959;49.798;9.928;2022-11-20T00:48:37;62442.22;;;-147.66;100.00
19624;BME280;9959;49.798;9.928;2022-11-20T00:51:05;62442.22;;;-147.66;100.00
19624;BME280;9959;49.798;9.928;2022-11-20T00:53:34;62442.22;;;-147.66;100.00
19624;BME280;9959;49.798;9.928;2022-11-20T00:56:04;62442.22;;;-147.66;100.00
19624;BME280;9959;49.798;9.928;2022-11-20T00:58:35;62442.22;;;-147.66;100.00
19624;BME280;9959;49.798;9.928;2022-11-20T01:01:05;62442.22;;;-147.66;100.00
19624;BME280;9959;49.798;9.928;2022-11-20T01:03:34;62442.22;;;-147.66;100.00
19624;BME280;9959;49.798;9.928;2022-11-20T01:06:03;62442.22;;;-147.66;100.00
19624;BME280;9959;49.798;9.928;2022-11-20T01:08:32;62442.22;;;-147.66;100.00
19624;BME280;9959;49.798;9.928;2022-11-20T01:11:02;62442.22;;;-147.66;100.00
19624;BME280;9959;49.798;9.928;2022-11-20T01:13:31;62442.22;;;-147.66;100.00
19624;BME280;9959;49.798;9.928;2022-11-20T01:16:08;62442.22;;;-147.66;100.00
19624;BME280;9959;49.798;9.928;2022-11-20T01:18:36;62442.22;;;-147.66;100.00
19624;BME280;9959;49.798;9.928;2022-11-20T01:21:07;62442.22;;;-147.66;100.00
19624;BME280;9959;49.798;9.928;2022-11-20T01:23:37;62442.22;;;-147.66;100.00
19624;BME280;9959;49.798;9.928;2022-11-20T01:26:07;62442.22;;;-147.66;100.00
19624;BME280;9959;49.798;9.928;2022-11-20T01:28:36;62442.22;;;-147.66;100.00
19624;BME280;9959;49.798;9.928;2022-11-20T01:31:12;62442.22;;;-147.66;100.00
19624;BME280;9959;49.798;9.928;2022-11-20T01:33:41;62442.22;;;-147.66;100.00
19624;BME280;9959;49.798;9.928;2022-11-20T01:36:10;62442.22;;;-147.66;100.00
19624;BME280;9959;49.798;9.928;2022-11-20T01:38:38;62442.22;;;-147.66;100.00
19624;BME280;9959;49.798;9.928;2022-11-20T01:41:07;62442.22;;;-147.66;100.00
19624;BME280;9959;49.798;9.928;2022-11-20T01:43:35;62442.22;;;-147.66;100.00
19624;BME280;9959;49.798;9.928;2022-11-20T01:46:14;62442.22;;;-147.66;100.00
19624;BME280;9959;49.798;9.928;2022-11-20T01:48:49;62442.22;;;-147.66;100.00
19624;BME280;9959;49.798;9.928;2022-11-20T01:51:22;62442.22;;;-147.66;100.00
19624;BME280;9959;49.798;9.928;2022-11-20T01:53:54;62442.22;;;-147.66;100.00
19624;BME280;9959;49.798;9.928;2022-11-20T01:56:23;62442.22;;;-147.66;100.00
19624;BME280;9959;49.798;9.928;2022-11-20T01:58:56;62442.22;;;-147.66;100.00
19624;BME280;9959;49.798;9.928;2022-11-20T02:01:27;62442.22;;;-147.66;100.00
19624;BME280;9959;49.798;9.928;2022-11-20T02:03:56;62442.22;;;-147.66;100.00
19624;BME280;9959;49.798;9.928;2022-11-20T02:06:26;62442.22;;;-147.66;100.00
19624;BME280;9959;49.798;9.928;2022-11-20T02:08:55;62442.22;;;-147.66;100.00
19624;BME280;9959;49.798;9.928;2022-11-20T02:11:23;62442.22;;;-147.66;100.00
19624;BME280;9959;49.798;9.928;2022-11-20T02:13:53;62442.22;;;-147.66;100.00
19624;BME280;9959;49.798;9.928;2022-11-20T02:16:23;62442.22;;;-147.66;100.00
19624;BME280;9959;49.798;9.928;2022-11-20T02:18:54;62442.22;;;-147.66;100.00
19624;BME280;9959;49.798;9.928;2022-11-20T02:21:34;62442.22;;;-147.66;100.00
19624;BME280;9959;49.798;9.928;2022-11-20T02:24:09;62442.22;;;-147.66;100.00
19624;BME280;9959;49.798;9.928;2022-11-20T02:26:44;62442.22;;;-147.66;100.00
19624;BME280;9959;49.798;9.928;2022-11-20T02:29:15;62442.22;;;-147.66;100.00
19624;BME280;9959;49.798;9.928;2022-11-20T02:31:45;62442.22;;;-147.66;100.00
19624;BME280;9959;49.798;9.928;2022-11-20T02:34:13;62442.22;;;-147.66;100.00
19624;BME280;9959;49.798;9.928;2022-11-20T02:36:42;62442.22;;;-147.66;100.00
19624;BME280;9959;49.798;9.928;2022-11-20T02:39:13;62442.22;;;-147.66;100.00
19624;BME280;9959;49.798;9.928;2022-11-20T02:41:44;62442.22;;;-147.66;100.00
19624;BME280;9959;49.798;9.928;2022-11-20T02:44:12;62442.22;;;-147.66;100.00
19624;BME280;9959;49.798;9.928;2022-11-20T02:46:40;62442.22;;;-147.66;100.00
19624;BME280;9959;49.798;9.928;2022-11-20T02:49:08;62442.22;;;-147.66;100.00
19624;BME280;9959;49.798;9.928;2022-11-20T02:51:36;62442.22;;;-147.66;100.00
19624;BME280;9959;49.798;9.928;2022-11-20T02:54:04;62442.22;;;-147.66;100.00
19624;BME280;9959;49.798;9.928;2022-11-20T02:56:33;62442.22;;;-147.66;100.00
19624;BME280;9959;49.798;9.928;2022-11-20T02:59:01;62442.22;;;-147.66;100.00
19624;BME280;9959;49.798;9.928;2022-11-20T03:01:29;62442.22;;;-147.66;100.00
19624;BME280;9959;49.798;9.928;2022-11-20T03:03:57;62442.22;;;-147.66;100.00
19624;BME280;9959;49.798;9.928;2022-11-20T03:06:25;62442.22;;;-147.66;100.00
19624;BME280;9959;49.798;9.928;2022-11-20T03:08:53;62442.22;;;-147.66;100.00
19624;BME280;9959;49.798;9.928;2022-11-20T03:11:21;62442.22;;;-147.66;100.00
19624;BME280;9959;49.798;9.928;2022-11-20T03:13:50;62442.22;;;-147.66;100.00
19624;BME280;9959;49.798;9.928;2022-11-20T03:16:20;62442.22;;;-147.66;100.00
19624;BME280;9959;49.798;9.928;2022-11-20T03:18:48;62442.22;;;-147.66;100.00
19624;BME280;9959;49.798;9.928;2022-11-20T03:21:17;62442.22;;;-147.66;100.00
19624;BME280;9959;49.798;9.928;2022-11-20T03:23:45;62442.22;;;-147.66;100.00
19624;BME280;9959;49.798;9.928;2022-11-20T03:26:15;62442.22;;;-147.66;100.00
19624;BME280;9959;49.798;9.928;2022-11-20T03:28:47;62442.22;;;-147.66;100.00
19624;BME280;9959;49.798;9.928;2022-11-20T03:31:18;62442.22;;;-147.66;100.00
19624;BME280;9959;49.798;9.928;2022-11-20T03:33:46;62442.22;;;-147.66;100.00
19624;BME280;9959;49.798;9.928;2022-11-20T03:36:16;62442.22;;;-147.66;100.00
19624;BME280;9959;49.798;9.928;2022-11-20T03:38:45;62442.22;;;-147.66;100.00
19624;BME280;9959;49.798;9.928;2022-11-20T03:41:15;62442.22;;;-147.66;100.00
19624;BME280;9959;49.798;9.928;2022-11-20T03:43:47;62442.22;;;-147.66;100.00
19624;BME280;9959;49.798;9.928;2022-11-20T03:46:16;62442.22;;;-147.66;100.00
19624;BME280;9959;49.798;9.928;2022-11-20T03:48:44;62442.22;;;-147.66;100.00
19624;BME280;9959;49.798;9.928;2022-11-20T03:51:18;62442.22;;;-147.66;100.00
19624;BME280;9959;49.798;9.928;2022-11-20T03:53:47;62442.22;;;-147.66;100.00
19624;BME280;9959;49.798;9.928;2022-11-20T03:56:17;62442.22;;;-147.66;100.00
19624;BME280;9959;49.798;9.928;2022-11-20T03:58:45;62442.22;;;-147.66;100.00
19624;BME280;9959;49.798;9.928;2022-11-20T04:01:16;62442.22;;;-147.66;100.00
19624;BME280;9959;49.798;9.928;2022-11-20T04:03:45;62442.22;;;-147.66;100.00
19624;BME280;9959;49.798;9.928;2022-11-20T04:06:16;62442.22;;;-147.66;100.00
19624;BME280;9959;49.798;9.928;2022-11-20T04:08:44;62442.22;;;-147.66;100.00
19624;BME280;9959;49.798;9.928;2022-11-20T04:11:20;62442.22;;;-147.66;100.00
19624;BME280;9959;49.798;9.928;2022-11-20T04:13:49;62442.22;;;-147.66;100.00
19624;BME280;9959;49.798;9.928;2022-11-20T04:16:18;62442.22;;;-147.66;100.00
19624;BME280;9959;49.798;9.928;2022-11-20T04:18:51;62442.22;;;-147.66;100.00
19624;BME280;9959;49.798;9.928;2022-11-20T04:21:19;62442.22;;;-147.66;100.00
19624;BME280;9959;49.798;9.928;2022-11-20T04:23:47;62442.22;;;-147.66;100.00
19624;BME280;9959;49.798;9.928;2022-11-20T04:26:15;62442.22;;;-147.66;100.00
19624;BME280;9959;49.798;9.928;2022-11-20T04:28:44;62442.22;;;-147.66;100.00
19624;BME280;9959;49.798;9.928;2022-11-20T04:31:13;62442.22;;;-147.66;100.00
19624;BME280;9959;49.798;9.928;2022-11-20T04:33:41;62442.22;;;-147.66;100.00
19624;BME280;9959;49.798;9.928;2022-11-20T04:36:12;62442.22;;;-147.66;100.00
19624;BME280;9959;49.798;9.928;2022-11-20T04:38:41;62442.22;;;-147.66;100.00
19624;BME280;9959;49.798;9.928;2022-11-20T04:41:14;62442.22;;;-147.66;100.00
19624;BME280;9959;49.798;9.928;2022-11-20T04:43:46;62442.22;;;-147.66;100.00
19624;BME280;9959;49.798;9.928;2022-11-20T04:46:14;62442.22;;;-147.66;100.00
19624;BME280;9959;49.798;9.928;2022-11-20T04:48:43;62442.22;;;-147.66;100.00
19624;BME280;9959;49.798;9.928;2022-11-20T04:51:12;62442.22;;;-147.66;100.00
19624;BME280;9959;49.798;9.928;2022-11-20T04:53:41;62442.22;;;-147.66;100.00
19624;BME280;9959;49.798;9.928;2022-11-20T04:56:11;62442.22;;;-147.66;100.00
19624;BME280;9959;49.798;9.928;2022-11-20T04:58:39;62442.22;;;-147.66;100.00
19624;BME280;9959;49.798;9.928;2022-11-20T05:01:10;62442.22;;;-147.66;100.00
19624;BME280;9959;49.798;9.928;2022-11-20T05:03:38;62442.22;;;-147.66;100.00
19624;BME280;9959;49.798;9.928;2022-11-20T05:06:09;62442.22;;;-147.66;100.00
19624;BME280;9959;49.798;9.928;2022-11-20T05:08:39;62442.22;;;-147.66;100.00
19624;BME280;9959;49.798;9.928;2022-11-20T05:11:08;62442.22;;;-147.66;100.00
19624;BME280;9959;49.798;9.928;2022-11-20T05:13:38;62442.22;;;-147.66;100.00
19624;BME280;9959;49.798;9.928;2022-11-20T05:16:08;62442.22;;;-147.66;100.00
19624;BME280;9959;49.798;9.928;2022-11-20T05:18:37;62442.22;;;-147.66;100.00
19624;BME280;9959;49.798;9.928;2022-11-20T05:21:06;62442.22;;;-147.66;100.00
19624;BME280;9959;49.798;9.928;2022-11-20T05:23:34;62442.22;;;-147.66;100.00
19624;BME280;9959;49.798;9.928;2022-11-20T05:26:04;62442.22;;;-147.66;100.00
19624;BME280;9959;49.798;9.928;2022-11-20T05:28:33;62442.22;;;-147.66;100.00
19624;BME280;9959;49.798;9.928;2022-11-20T05:31:05;62442.22;;;-147.66;100.00
19624;BME280;9959;49.798;9.928;2022-11-20T05:33:34;62442.22;;;-147.66;100.00
19624;BME280;9959;49.798;9.928;2022-11-20T05:36:02;62442.22;;;-147.66;100.00
19624;BME280;9959;49.798;9.928;2022-11-20T05:38:30;62442.22;;;-147.66;100.00
19624;BME280;9959;49.798;9.928;2022-11-20T05:41:04;62442.22;;;-147.66;100.00
19624;BME280;9959;49.798;9.928;2022-11-20T05:43:33;62442.22;;;-147.66;100.00
19624;BME280;9959;49.798;9.928;2022-11-20T05:46:01;62442.22;;;-147.66;100.00
19624;BME280;9959;49.798;9.928;2022-11-20T05:48:30;62442.22;;;-147.66;100.00
19624;BME280;9959;49.798;9.928;2022-11-20T05:50:59;62442.22;;;-147.66;100.00
19624;BME280;9959;49.798;9.928;2022-11-20T05:53:27;62442.22;;;-147.66;100.00
19624;BME280;9959;49.798;9.928;2022-11-20T05:55:57;62442.22;;;-147.66;100.00
19624;BME280;9959;49.798;9.928;2022-11-20T05:58:26;62442.22;;;-147.66;100.00
19624;BME280;9959;49.798;9.928;2022-11-20T06:00:54;62442.22;;;-147.66;100.00
19624;BME280;9959;49.798;9.928;2022-11-20T06:03:22;62442.22;;;-147.66;100.00
19624;BME280;9959;49.798;9.928;2022-11-20T06:05:50;62442.22;;;-147.66;100.00
19624;BME280;9959;49.798;9.928;2022-11-20T06:08:18;62442.22;;;-147.66;100.00
19624;BME280;9959;49.798;9.928;2022-11-20T06:10:46;62442.22;;;-147.66;100.00
19624;BME280;9959;49.798;9.928;2022-11-20T06:13:14;62442.22;;;-147.66;100.00
19624;BME280;9959;49.798;9.928;2022-11-20T06:15:48;62442.22;;;-147.66;100.00
19624;BME280;9959;49.798;9.928;2022-11-20T06:18:16;62442.22;;;-147.66;100.00
19624;BME280;9959;49.798;9.928;2022-11-20T06:20:44;62442.22;;;-147.66;100.00
19624;BME280;9959;49.798;9.928;2022-11-20T06:23:13;62442.22;;;-147.66;100.00
19624;BME280;9959;49.798;9.928;2022-11-20T06:25:42;62442.22;;;-147.66;100.00
19624;BME280;9959;49.798;9.928;2022-11-20T06:28:10;62442.22;;;-147.66;100.00
19624;BME280;9959;49.798;9.928;2022-11-20T06:30:45;62442.22;;;-147.66;100.00
19624;BME280;9959;49.798;9.928;2022-11-20T06:33:13;62442.22;;;-147.66;100.00
19624;BME280;9959;49.798;9.928;2022-11-20T06:35:41;62442.22;;;-147.66;100.00
19624;BME280;9959;49.798;9.928;2022-11-20T06:38:09;62442.22;;;-147.66;100.00
19624;BME280;9959;49.798;9.928;2022-11-20T06:40:40;62442.22;;;-147.66;100.00
19624;BME280;9959;49.798;9.928;2022-11-20T06:43:08;62442.22;;;-147.66;100.00
19624;BME280;9959;49.798;9.928;2022-11-20T06:45:37;62442.22;;;-147.66;100.00
19624;BME280;9959;49.798;9.928;2022-11-20T06:48:06;62442.22;;;-147.66;100.00
19624;BME280;9959;49.798;9.928;2022-11-20T06:50:34;62442.22;;;-147.66;100.00
19624;BME280;9959;49.798;9.928;2022-11-20T06:53:03;62442.22;;;-147.66;100.00
19624;BME280;9959;49.798;9.928;2022-11-20T06:55:31;62442.22;;;-147.66;100.00
19624;BME280;9959;49.798;9.928;2022-11-20T06:57:59;62442.22;;;-147.66;100.00
19624;BME280;9959;49.798;9.928;2022-11-20T07:00:27;62442.22;;;-147.66;100.00
19624;BME280;9959;49.798;9.928;2022-11-20T07:02:55;62442.22;;;-147.66;100.00
19624;BME280;9959;49.798;9.928;2022-11-20T07:05:25;62442.22;;;-147.66;100.00
19624;BME280;9959;49.798;9.928;2022-11-20T07:38:39;99097.78;;;14.69;62.24
19624;BME280;9959;49.798;9.928;2022-11-20T07:41:07;99100.69;;;15.11;62.23
19624;BME280;9959;49.798;9.928;2022-11-20T07:43:35;99095.34;;;15.70;61.17
19624;BME280;9959;49.798;9.928;2022-11-20T07:49:54;99099.66;;;6.55;nan
19624;BME280;9959;49.798;9.928;2022-11-20T07:52:22;99102.06;;;3.56;nan
19624;BME280;9959;49.798;9.928;2022-11-20T07:54:50;99110.44;;;2.54;nan
19624;BME280;9959;49.798;9.928;2022-11-20T07:57:18;99106.38;;;1.88;nan
19624;BME280;9959;49.798;9.928;2022-11-20T07:59:51;99114.38;;;1.39;nan
19624;BME280;9959;49.798;9.928;2022-11-20T08:02:19;99111.72;;;1.23;nan
19624;BME280;9959;49.798;9.928;2022-11-20T08:05:19;99116.50;;;0.95;94.46
19624;BME280;9959;49.798;9.928;2022-11-20T08:07:47;99117.66;;;0.92;96.59
19624;BME280;9959;49.798;9.928;2022-11-20T08:10:15;99122.97;;;0.92;96.94
19624;BME280;9959;49.798;9.928;2022-11-20T08:12:45;99126.94;;;0.80;97.61
19624;BME280;9959;49.798;9.928;2022-11-20T08:15:31;99131.41;;;0.88;97.80
19624;BME280;9959;49.798;9.928;2022-11-20T08:18:01;99131.25;;;0.81;97.17
19624;BME280;9959;49.798;9.928;2022-11-20T08:20:50;99142.19;;;0.78;97.54
19624;BME280;9959;49.798;9.928;2022-11-20T08:23:18;99137.22;;;0.91;98.65
19624;BME280;9959;49.798;9.928;2022-11-20T08:25:49;99141.69;;;0.91;97.36
19624;BME280;9959;49.798;9.928;2022-11-20T08:28:17;99136.19;;;0.84;98.33
19624;BME280;9959;49.798;9.928;2022-11-20T08:30:48;99139.84;;;0.83;98.63
19624;BME280;9959;49.798;9.928;2022-11-20T08:33:17;99126.63;;;0.91;98.44
19624;BME280;9959;49.798;9.928;2022-11-20T08:35:45;99134.28;;;1.02;97.66
19624;BME280;9959;49.798;9.928;2022-11-20T08:38:14;99132.25;;;0.88;98.05
19624;BME280;9959;49.798;9.928;2022-11-20T08:40:42;99129.25;;;0.83;98.18
19624;BME280;9959;49.798;9.928;2022-11-20T08:43:31;99124.97;;;0.90;97.15
19624;BME280;9959;49.798;9.928;2022-11-20T08:46:00;99121.31;;;0.91;98.14
19624;BME280;9959;49.798;9.928;2022-11-20T08:48:27;99116.69;;;1.01;97.87
19624;BME280;9959;49.798;9.928;2022-11-20T08:50:57;99125.66;;;1.00;96.87
19624;BME280;9959;49.798;9.928;2022-11-20T08:53:27;99126.66;;;1.24;97.41
19624;BME280;9959;49.798;9.928;2022-11-20T08:55:56;99116.38;;;1.21;96.79
19624;BME280;9959;49.798;9.928;2022-11-20T08:58:24;99114.06;;;1.26;97.15
19624;BME280;9959;49.798;9.928;2022-11-20T09:00:52;99116.03;;;1.40;96.73
19624;BME280;9959;49.798;9.928;2022-11-20T09:03:20;99106.44;;;1.31;96.50
19624;BME280;9959;49.798;9.928;2022-11-20T09:05:56;99107.09;;;1.57;95.50
19624;BME280;9959;49.798;9.928;2022-11-20T09:08:24;99105.38;;;1.73;94.44
19624;BME280;9959;49.798;9.928;2022-11-20T09:10:55;99107.75;;;1.59;94.68
19624;BME280;9959;49.798;9.928;2022-11-20T09:13:24;99116.88;;;1.49;95.44
19624;BME280;9959;49.798;9.928;2022-11-20T09:15:53;99115.69;;;1.84;95.12
19624;BME280;9959;49.798;9.928;2022-11-20T09:18:23;99115.00;;;1.82;94.69
19624;BME280;9959;49.798;9.928;2022-11-20T09:20:51;99117.03;;;1.55;95.15
19624;BME280;9959;49.798;9.928;2022-11-20T09:23:20;99130.13;;;1.65;95.93
19624;BME280;9959;49.798;9.928;2022-11-20T09:25:48;99122.84;;;1.51;95.51
19624;BME280;9959;49.798;9.928;2022-11-20T09:28:17;99120.53;;;1.56;96.09
19624;BME280;9959;49.798;9.928;2022-11-20T09:30:45;99120.84;;;1.53;96.95
19624;BME280;9959;49.798;9.928;2022-11-20T09:33:13;99126.47;;;1.82;97.22
19624;BME280;9959;49.798;9.928;2022-11-20T09:35:40;99135.59;;;1.72;96.81
19624;BME280;9959;49.798;9.928;2022-11-20T09:38:10;99144.88;;;1.76;96.49
19624;BME280;9959;49.798;9.928;2022-11-20T09:40:40;99141.25;;;1.60;97.34
19624;BME280;9959;49.798;9.928;2022-11-20T09:43:17;99148.88;;;1.47;96.31
19624;BME280;9959;49.798;9.928;2022-11-20T09:46:04;99147.06;;;1.64;96.03
19624;BME280;9959;49.798;9.928;2022-11-20T09:48:54;99159.03;;;1.60;95.75
19624;BME280;9959;49.798;9.928;2022-11-20T09:51:35;99157.03;;;1.62;96.49
19624;BME280;9959;49.798;9.928;2022-11-20T09:54:15;99154.50;;;1.77;96.86
19624;BME280;9959;49.798;9.928;2022-11-20T09:56:45;99153.31;;;1.95;95.01
19624;BME280;9959;49.798;9.928;2022-11-20T09:59:28;99156.97;;;1.94;93.67
19624;BME280;9959;49.798;9.928;2022-11-20T10:01:58;99156.50;;;1.91;93.91
19624;BME280;9959;49.798;9.928;2022-11-20T10:04:30;99157.13;;;2.09;94.77
19624;BME280;9959;49.798;9.928;2022-11-20T10:07:11;99156.44;;;2.15;93.94
19624;BME280;9959;49.798;9.928;2022-11-20T10:09:58;99145.75;;;2.40;93.81
19624;BME280;9959;49.798;9.928;2022-11-20T10:12:33;99144.91;;;2.39;91.65
19624;BME280;9959;49.798;9.928;2022-11-20T10:15:21;99141.81;;;2.66;91.06
19624;BME280;9959;49.798;9.928;2022-11-20T10:18:11;99134.66;;;2.67;91.65
19624;BME280;9959;49.798;9.928;2022-11-20T10:20:46;99135.09;;;3.01;89.62
19624;BME280;9959;49.798;9.928;2022-11-20T10:23:27;99134.06;;;3.11;88.92
19624;BME280;9959;49.798;9.928;2022-11-20T10:26:02;99124.19;;;2.96;88.96
19624;BME280;9959;49.798;9.928;2022-11-20T10:28:41;99117.72;;;3.36;86.39
19624;BME280;9959;49.798;9.928;2022-11-20T10:31:30;99115.94;;;4.33;81.67
19624;BME280;9959;49.798;9.928;2022-11-20T10:34:02;99112.81;;;4.15;81.37
19624;BME280;9959;49.798;9.928;2022-11-20T10:36:41;99109.94;;;3.72;83.74
19624;BME280;9959;49.798;9.928;2022-11-20T10:39:17;99103.69;;;4.39;82.19
19624;BME280;9959;49.798;9.928;2022-11-20T10:41:50;99103.47;;;4.70;77.42
19624;BME280;9959;49.798;9.928;2022-11-20T10:44:21;99104.56;;;3.20;82.32
19624;BME280;9959;49.798;9.928;2022-11-20T10:47:09;99105.72;;;3.18;86.57
19624;BME280;9959;49.798;9.928;2022-11-20T10:49:41;99114.84;;;3.00;87.52
19624;BME280;9959;49.798;9.928;2022-11-20T10:52:16;99100.47;;;3.85;84.95
19624;BME280;9959;49.798;9.928;2022-11-20T10:54:52;99110.63;;;4.04;81.66
19624;BME280;9959;49.798;9.928;2022-11-20T10:57:44;99096.91;;;3.78;84.78
19624;BME280;9959;49.798;9.928;2022-11-20T11:00:17;99092.75;;;4.19;81.68
19624;BME280;9959;49.798;9.928;2022-11-20T11:02:48;99100.13;;;4.02;81.99
19624;BME280;9959;49.798;9.928;2022-11-20T11:05:24;99095.50;;;4.40;80.84
19624;BME280;9959;49.798;9.928;2022-11-20T11:07:54;99092.47;;;4.58;81.04
19624;BME280;9959;49.798;9.928;2022-11-20T11:10:26;99090.19;;;4.11;80.79
19624;BME280;9959;49.798;9.928;2022-11-20T11:12:56;99088.22;;;4.64;80.29
19624;BME280;9959;49.798;9.928;2022-11-20T11:15:26;99088.09;;;4.72;79.76
19624;BME280;9959;49.798;9.928;2022-11-20T11:17:56;99078.75;;;4.47;80.87
19624;BME280;9959;49.798;9.928;2022-11-20T11:20:25;99087.44;;;4.19;82.11
19624;BME280;9959;49.798;9.928;2022-11-20T11:22:55;99081.00;;;3.99;82.40
19624;BME280;9959;49.798;9.928;2022-11-20T11:25:27;99073.34;;;3.66;85.94
19624;BME280;9959;49.798;9.928;2022-11-20T11:27:58;99082.28;;;3.73;86.41
19624;BME280;9959;49.798;9.928;2022-11-20T11:30:28;99074.72;;;3.62;86.46
19624;BME280;9959;49.798;9.928;2022-11-20T11:33:05;99071.88;;;3.64;85.59
19624;BME280;9959;49.798;9.928;2022-11-20T11:35:38;99071.41;;;3.60;86.66
19624;BME280;9959;49.798;9.928;2022-11-20T11:38:12;99067.03;;;3.67;87.84
19624;BME280;9959;49.798;9.928;2022-11-20T11:40:42;99070.69;;;3.66;86.85
19624;BME280;9959;49.798;9.928;2022-11-20T11:43:19;99067.31;;;3.72;86.71
19624;BME280;9959;49.798;9.928;2022-11-20T11:46:21;99072.50;;;3.51;88.07
19624;BME280;9959;49.798;9.928;2022-11-20T11:48:57;99071.63;;;3.73;87.40
19624;BME280;9959;49.798;9.928;2022-11-20T11:51:34;99066.19;;;3.67;87.98
19624;BME280;9959;49.798;9.928;2022-11-20T11:54:13;99069.28;;;3.56;88.94
19624;BME280;9959;49.798;9.928;2022-11-20T11:56:44;99066.72;;;3.62;87.36
19624;BME280;9959;49.798;9.928;2022-11-20T11:59:21;99070.84;;;3.50;89.56
19624;BME280;9959;49.798;9.928;2022-11-20T12:01:54;99069.50;;;3.69;89.85
19624;BME280;9959;49.798;9.928;2022-11-20T12:04:38;99059.84;;;3.53;90.14
19624;BME280;9959;49.798;9.928;2022-11-20T12:07:15;99061.69;;;3.53;90.79
19624;BME280;9959;49.798;9.928;2022-11-20T12:10:04;99057.91;;;3.62;91.27
19624;BME280;9959;49.798;9.928;2022-11-20T12:12:36;99055.28;;;3.77;91.02
19624;BME280;9959;49.798;9.928;2022-11-20T12:15:10;99052.50;;;3.85;90.36
19624;BME280;9959;49.798;9.928;2022-11-20T12:17:38;99052.25;;;3.80;90.46
19624;BME280;9959;49.798;9.928;2022-11-20T12:20:13;99047.19;;;3.85;90.14
19624;BME280;9959;49.798;9.928;2022-11-20T12:22:47;99040.03;;;3.70;90.20
19624;BME280;9959;49.798;9.928;2022-11-20T12:25:21;99047.19;;;3.70;90.44
19624;BME280;9959;49.798;9.928;2022-11-20T12:30:49;99038.91;;;3.50;91.51
19624;BME280;9959;49.798;9.928;2022-11-20T12:33:43;99043.75;;;3.61;91.69
19624;BME280;9959;49.798;9.928;2022-11-20T12:36:22;99046.06;;;3.64;92.71
19624;BME280;9959;49.798;9.928;2022-11-20T12:45:26;99043.44;;;3.79;92.10
19624;BME280;9959;49.798;9.928;2022-11-20T12:48:06;99041.47;;;3.88;91.67
19624;BME280;9959;49.798;9.928;2022-11-20T12:50:47;99047.00;;;4.01;90.30
19624;BME280;9959;49.798;9.928;2022-11-20T12:53:44;99051.06;;;3.97;89.93
19624;BME280;9959;49.798;9.928;2022-11-20T12:56:26;99056.28;;;4.05;90.24
19624;BME280;9959;49.798;9.928;2022-11-20T12:59:06;99034.84;;;4.13;89.91
19624;BME280;9959;49.798;9.928;2022-11-20T13:01:41;99039.25;;;4.35;89.14
19624;BME280;9959;49.798;9.928;2022-11-20T13:04:28;99040.72;;;4.23;89.11
19624;BME280;9959;49.798;9.928;2022-11-20T13:07:02;99031.84;;;4.01;89.51
19624;BME280;9959;49.798;9.928;2022-11-20T13:09:33;99031.28;;;4.06;88.94
19624;BME280;9959;49.798;9.928;2022-11-20T13:12:08;99028.44;;;3.93;90.69
19624;BME280;9959;49.798;9.928;2022-11-20T13:14:42;99035.97;;;4.04;89.58
19624;BME280;9959;49.798;9.928;2022-11-20T13:17:16;99042.31;;;4.03;90.17
19624;BME280;9959;49.798;9.928;2022-11-20T13:19:50;99036.81;;;3.90;91.15
19624;BME280;9959;49.798;9.928;2022-11-20T13:22:24;99032.50;;;4.03;89.27
19624;BME280;9959;49.798;9.928;2022-11-20T13:24:54;99030.28;;;4.07;91.14
19624;BME280;9959;49.798;9.928;2022-11-20T13:27:23;99025.84;;;4.14;90.98
19624;BME280;9959;49.798;9.928;2022-11-20T13:30:12;99030.66;;;4.04;91.45
19624;BME280;9959;49.798;9.928;2022-11-20T13:32:48;99022.94;;;4.09;92.24
19624;BME280;9959;49.798;9.928;2022-11-20T13:35:28;99015.31;;;4.06;92.52
19624;BME280;9959;49.798;9.928;2022-11-20T13:38:06;99021.53;;;4.13;92.06
19624;BME280;9959;49.798;9.928;2022-11-20T13:40:37;99013.25;;;4.23;91.20
19624;BME280;9959;49.798;9.928;2022-11-20T13:43:18;99010.25;;;4.47;91.23
19624;BME280;9959;49.798;9.928;2022-11-20T13:45:58;99005.63;;;4.77;87.75
19624;BME280;9959;49.798;9.928;2022-11-20T13:48:30;99011.56;;;5.22;87.98
19624;BME280;9959;49.798;9.928;2022-11-20T13:51:06;99020.59;;;5.21;84.34
19624;BME280;9959;49.798;9.928;2022-11-20T13:54:01;99021.13;;;4.67;86.23
19624;BME280;9959;49.798;9.928;2022-11-20T13:56:43;99022.03;;;4.74;87.20
19624;BME280;9959;49.798;9.928;2022-11-20T13:59:28;99015.41;;;4.49;88.67
19624;BME280;9959;49.798;9.928;2022-11-20T14:01:59;99022.19;;;4.51;87.77
19624;BME280;9959;49.798;9.928;2022-11-20T14:04:32;99021.22;;;4.37;90.07
19624;BME280;9959;49.798;9.928;2022-11-20T14:07:01;99025.28;;;4.33;90.93
19624;BME280;9959;49.798;9.928;2022-11-20T14:09:31;99003.59;;;4.36;89.99